Marshalltown Municipal Airport

About
Name: Marshalltown Municipal Airport
Identifier:  MIW/KMIW
Local Time:  18. Aug 04:49
Location
Marshalltown
  United States

Flights per Day
0 flights
Punctuality
0% (0 flights per day delayed)
Delay Average: 70 minutes
Current Weather
 22 C (Humidity: 94%)
  9kt (16km/h / 10mph) from 140°
  Few clouds at 12,000 feet (3,657 meter)
  16km (10 mi.)
 METAR KMIW 180353Z AUTO 14009KT 10SM FEW120 22/21 A2977 RMK AO2 SLP073 T02170206

Current Flights

Departures
Number Departure To Airline
Arrivals
Number Arrival From Airline

Current Delays

Departures
N/A
Arrivals
N/A

Destinations

Top Destinations
Airport Flights
per week
Seats
per week
  Minneapolis (FCM) 0 - 0 0
  White Plains (HPN) 0 - 0 0

Airlines & Planes

Top Airlines
Airline Flights
per Day
Seats
per Day
Nordwind Airlines 0 -
Top Plane Types
Model Flights Seats
Bombardier Challenger 350 0.0/day - 0
Piper PA22-150 0.0/day - 0